createdAt,value
2023-03-10T00:02:36.583Z,10.20
2023-03-10T00:06:21.238Z,10.20
2023-03-10T00:10:03.443Z,10.20
2023-03-10T00:13:45.350Z,10.20
2023-03-10T00:17:27.955Z,10.20
2023-03-10T00:21:15.359Z,10.20
2023-03-10T00:24:57.168Z,10.30
2023-03-10T00:28:39.386Z,10.20
2023-03-10T00:32:21.178Z,10.30
2023-03-10T00:36:08.987Z,10.20
2023-03-10T00:39:52.422Z,10.30
2023-03-10T00:43:35.175Z,10.30
2023-03-10T00:47:16.963Z,10.20
2023-03-10T00:50:59.540Z,9.90
2023-03-10T00:54:42.128Z,9.60
2023-03-10T00:58:23.899Z,9.30
2023-03-10T01:02:05.875Z,8.90
2023-03-10T01:05:49.350Z,8.50
2023-03-10T01:09:31.094Z,8.20
2023-03-10T01:13:14.268Z,7.90
2023-03-10T01:16:56.083Z,7.70
2023-03-10T01:20:37.999Z,7.50
2023-03-10T01:24:19.971Z,7.30
2023-03-10T01:28:01.705Z,7.20
2023-03-10T01:31:43.566Z,7.10
2023-03-10T01:35:25.689Z,7.00
2023-03-10T01:39:07.468Z,6.90
2023-03-10T01:42:49.221Z,6.90
2023-03-10T01:46:59.298Z,6.90
2023-03-10T01:50:45.321Z,6.80
2023-03-10T01:54:33.745Z,6.80
2023-03-10T01:58:17.779Z,6.70
2023-03-10T02:02:01.629Z,6.70
2023-03-10T02:05:48.464Z,6.60
2023-03-10T02:09:31.063Z,6.60
2023-03-10T02:13:12.767Z,6.60
2023-03-10T02:16:54.590Z,6.60
2023-03-10T02:21:35.113Z,6.40
2023-03-10T02:25:22.074Z,6.30
2023-03-10T02:29:07.392Z,6.30
2023-03-10T02:32:53.226Z,6.20
2023-03-10T02:36:34.989Z,6.20
2023-03-10T02:40:25.507Z,6.20
2023-03-10T02:44:13.696Z,6.10
2023-03-10T02:47:55.439Z,6.00
2023-03-10T02:51:41.501Z,5.90
2023-03-10T02:55:23.269Z,5.80
2023-03-10T02:59:07.269Z,5.80
2023-03-10T03:02:49.043Z,5.80
2023-03-10T03:06:31.064Z,5.70
2023-03-10T03:10:12.848Z,5.70
2023-03-10T03:13:54.798Z,5.70
2023-03-10T03:17:36.563Z,5.60
2023-03-10T03:21:18.428Z,5.50
2023-03-10T03:25:00.184Z,5.40
2023-03-10T03:28:42.596Z,5.40
2023-03-10T03:32:24.454Z,5.40
2023-03-10T03:36:06.653Z,5.40
2023-03-10T03:39:48.489Z,5.30
2023-03-10T03:43:30.304Z,5.30
2023-03-10T03:47:12.066Z,5.30
2023-03-10T03:50:53.859Z,5.30
2023-03-10T03:54:35.728Z,5.30
2023-03-10T03:58:17.549Z,5.30
2023-03-10T04:01:59.344Z,5.30
2023-03-10T04:05:41.462Z,5.30
2023-03-10T04:09:23.221Z,5.30
2023-03-10T04:13:04.990Z,5.30
2023-03-10T04:16:46.786Z,5.30
2023-03-10T04:20:28.572Z,5.30
2023-03-10T04:24:10.341Z,5.30
2023-03-10T04:27:52.128Z,5.30
2023-03-10T04:31:33.902Z,5.30
2023-03-10T04:35:15.701Z,5.30
2023-03-10T04:38:57.568Z,5.30
2023-03-10T04:42:39.318Z,5.30
2023-03-10T04:46:21.183Z,5.30
2023-03-10T04:50:03.344Z,5.20
2023-03-10T04:53:45.137Z,5.20
2023-03-10T04:57:27.448Z,5.20
2023-03-10T05:01:11.070Z,5.10
2023-03-10T05:04:52.947Z,5.10
2023-03-10T05:08:34.704Z,5.10
2023-03-10T05:12:16.457Z,5.10
2023-03-10T05:15:58.531Z,5.10
2023-03-10T05:19:40.327Z,5.10
2023-03-10T05:23:22.438Z,5.10
2023-03-10T05:27:04.356Z,5.20
2023-03-10T05:30:46.065Z,5.10
2023-03-10T05:34:28.767Z,5.00
2023-03-10T05:38:10.484Z,5.00
2023-03-10T05:41:52.210Z,4.90
2023-03-10T05:45:34.091Z,4.90
2023-03-10T05:49:15.854Z,4.80
2023-03-10T05:52:57.600Z,4.80
2023-03-10T05:56:39.352Z,4.80
2023-03-10T06:00:21.461Z,4.70
2023-03-10T06:04:03.861Z,4.70
2023-03-10T06:07:46.138Z,4.70
2023-03-10T06:11:28.017Z,4.60
2023-03-10T06:15:10.188Z,4.50
2023-03-10T06:18:56.034Z,4.40
2023-03-10T06:22:37.868Z,4.30
2023-03-10T06:26:19.612Z,4.30
2023-03-10T06:30:01.431Z,4.20
2023-03-10T06:33:43.727Z,4.10
2023-03-10T06:37:25.637Z,4.10
2023-03-10T06:41:08.030Z,4.10
2023-03-10T06:44:49.776Z,4.00
2023-03-10T06:48:31.642Z,4.00
2023-03-10T06:52:13.444Z,4.00
2023-03-10T06:56:07.178Z,3.90
2023-03-10T06:59:49.041Z,4.00
2023-03-10T07:03:30.880Z,4.00
2023-03-10T07:07:13.748Z,3.90
2023-03-10T07:10:56.487Z,3.90
2023-03-10T07:14:38.183Z,3.90
2023-03-10T07:18:20.144Z,3.90
2023-03-10T07:22:01.961Z,3.90
2023-03-10T07:25:43.673Z,3.90
2023-03-10T07:29:25.529Z,3.90
2023-03-10T07:33:07.438Z,3.80
2023-03-10T07:36:49.234Z,3.90
2023-03-10T07:40:31.291Z,3.80
2023-03-10T07:44:13.006Z,3.80
2023-03-10T07:47:55.157Z,3.80
2023-03-10T07:51:37.991Z,3.80
2023-03-10T07:55:19.730Z,3.80
2023-03-10T07:59:01.511Z,3.80
2023-03-10T08:02:43.277Z,3.80
2023-03-10T08:06:27.877Z,3.80
2023-03-10T08:10:10.539Z,3.80
2023-03-10T08:13:52.327Z,3.80
2023-03-10T08:17:34.206Z,3.80
2023-03-10T08:21:16.021Z,3.90
2023-03-10T08:24:59.455Z,3.90
2023-03-10T08:28:42.207Z,3.90
2023-03-10T08:32:24.065Z,4.00
2023-03-10T08:36:15.263Z,4.00
2023-03-10T08:39:59.165Z,4.00
2023-03-10T08:43:41.104Z,4.20
2023-03-10T08:47:23.476Z,4.30
2023-03-10T08:51:06.958Z,4.40
2023-03-10T08:54:48.898Z,4.50
2023-03-10T08:58:30.803Z,4.50
2023-03-10T09:02:15.175Z,4.60
2023-03-10T09:05:57.071Z,4.60
2023-03-10T09:09:38.823Z,4.60
2023-03-10T09:13:20.605Z,4.60
2023-03-10T09:17:02.501Z,4.60
2023-03-10T09:20:45.328Z,4.60
2023-03-10T09:24:27.358Z,4.60
2023-03-10T09:28:12.275Z,4.70
2023-03-10T09:31:54.081Z,4.70
2023-03-10T09:35:39.377Z,4.80
2023-03-10T09:39:23.768Z,4.90
2023-03-10T09:43:07.845Z,4.90
2023-03-10T09:47:10.966Z,4.90
2023-03-10T09:50:56.505Z,5.00
2023-03-10T09:54:57.280Z,5.10
2023-03-10T09:58:43.979Z,5.20
2023-03-10T10:02:32.124Z,5.30
2023-03-10T10:06:19.398Z,5.30
2023-03-10T10:10:18.594Z,5.60
2023-03-10T10:14:38.378Z,5.70
2023-03-10T10:18:31.564Z,5.80
2023-03-10T10:22:27.606Z,5.80
2023-03-10T10:26:18.861Z,5.80
2023-03-10T10:30:32.508Z,5.80
2023-03-10T10:34:22.468Z,5.90
2023-03-10T10:38:09.953Z,6.00
2023-03-10T10:41:51.784Z,6.00
2023-03-10T10:45:39.521Z,6.00
2023-03-10T10:49:31.586Z,6.00
2023-03-10T10:53:13.607Z,6.00
2023-03-10T10:57:00.983Z,6.00
2023-03-10T11:00:42.763Z,5.90
2023-03-10T11:04:26.771Z,5.90
2023-03-10T11:08:28.249Z,6.00
2023-03-10T11:12:32.094Z,6.00
2023-03-10T11:16:34.505Z,6.00
2023-03-10T11:20:32.837Z,6.00
2023-03-10T11:24:27.984Z,5.90
2023-03-10T11:28:40.708Z,5.90
2023-03-10T11:32:41.296Z,5.80
2023-03-10T11:36:55.347Z,5.90
2023-03-10T11:40:44.185Z,6.20
2023-03-10T11:45:11.908Z,6.30
2023-03-10T11:49:10.762Z,6.30
2023-03-10T11:53:00.485Z,6.10
2023-03-10T11:56:42.833Z,6.10
2023-03-10T12:00:34.274Z,6.30
2023-03-10T12:04:45.113Z,6.50
2023-03-10T12:08:33.049Z,6.80
2023-03-10T12:12:19.560Z,6.80
2023-03-10T12:16:03.954Z,6.90
2023-03-10T12:20:14.766Z,6.90
2023-03-10T12:23:58.893Z,6.80
2023-03-10T12:28:18.340Z,6.80
2023-03-10T12:32:00.851Z,6.80
2023-03-10T12:35:49.471Z,6.70
2023-03-10T12:39:42.452Z,6.70
2023-03-10T12:43:56.030Z,7.20
2023-03-10T12:47:52.619Z,7.40
2023-03-10T12:51:46.291Z,7.60
2023-03-10T12:55:28.996Z,7.50
2023-03-10T12:59:30.344Z,7.50
2023-03-10T13:03:28.101Z,7.60
2023-03-10T13:07:15.483Z,7.80
2023-03-10T13:10:59.188Z,7.90
2023-03-10T13:14:43.209Z,8.00
2023-03-10T13:18:25.171Z,7.90
2023-03-10T13:22:07.065Z,7.90
2023-03-10T13:26:14.650Z,8.00
2023-03-10T13:30:02.568Z,8.30
2023-03-10T13:33:53.243Z,8.30
2023-03-10T13:37:35.535Z,8.10
2023-03-10T13:41:17.273Z,8.00
2023-03-10T13:44:59.077Z,8.00
2023-03-10T13:48:41.449Z,8.20
2023-03-10T13:52:29.116Z,8.40
2023-03-10T13:56:21.666Z,8.40
2023-03-10T14:00:08.572Z,8.30
2023-03-10T14:03:56.650Z,8.20
2023-03-10T14:07:38.908Z,8.10
2023-03-10T14:11:39.226Z,8.10
2023-03-10T14:15:23.212Z,7.90
2023-03-10T14:19:04.982Z,7.80
2023-03-10T14:22:47.821Z,7.70
2023-03-10T14:26:29.775Z,7.70
2023-03-10T14:30:41.680Z,7.70
2023-03-10T14:34:23.556Z,7.80
2023-03-10T14:38:05.647Z,7.80
2023-03-10T14:41:47.792Z,7.80
2023-03-10T14:45:35.092Z,7.90
2023-03-10T14:49:17.055Z,8.10
2023-03-10T14:52:58.878Z,8.40
2023-03-10T14:56:41.152Z,8.50
2023-03-10T15:00:23.336Z,8.50
2023-03-10T15:04:05.497Z,8.50
2023-03-10T15:07:48.898Z,8.50
2023-03-10T15:11:37.329Z,8.30
2023-03-10T15:15:25.114Z,8.30
2023-03-10T15:19:07.158Z,8.20
2023-03-10T15:22:50.115Z,8.10
2023-03-10T15:26:32.189Z,8.00
2023-03-10T15:30:25.887Z,7.90
2023-03-10T15:34:07.969Z,7.90
2023-03-10T15:37:51.093Z,7.90
2023-03-10T15:41:37.746Z,7.80
2023-03-10T15:45:19.723Z,7.80
2023-03-10T15:49:04.389Z,7.80
2023-03-10T15:52:54.701Z,7.80
2023-03-10T15:56:36.417Z,7.70
2023-03-10T16:00:20.557Z,7.80
2023-03-10T16:04:05.892Z,7.80
2023-03-10T16:07:47.977Z,7.90
2023-03-10T16:11:29.748Z,7.90
2023-03-10T16:15:12.681Z,8.00
2023-03-10T16:18:54.862Z,8.00
2023-03-10T16:22:40.667Z,8.00
2023-03-10T16:26:24.009Z,7.90
2023-03-10T16:30:06.577Z,7.80
2023-03-10T16:33:50.665Z,7.80
2023-03-10T16:37:32.459Z,7.80
2023-03-10T16:41:14.561Z,7.70
2023-03-10T16:44:56.849Z,7.60
2023-03-10T16:48:44.739Z,7.60
2023-03-10T16:52:26.541Z,7.60
2023-03-10T16:56:08.528Z,7.60
2023-03-10T16:59:50.226Z,7.60
2023-03-10T17:03:33.816Z,7.60
2023-03-10T17:07:15.729Z,7.50
2023-03-10T17:10:57.584Z,7.40
2023-03-10T17:14:39.315Z,7.30
2023-03-10T17:18:21.081Z,7.30
2023-03-10T17:22:02.972Z,7.30
2023-03-10T17:25:45.649Z,7.30
2023-03-10T17:29:27.409Z,7.20
2023-03-10T17:33:09.120Z,7.10
2023-03-10T17:36:51.439Z,7.10
2023-03-10T17:40:33.844Z,7.00
2023-03-10T17:44:16.363Z,6.90
2023-03-10T17:47:58.124Z,6.80
2023-03-10T17:51:43.523Z,6.70
2023-03-10T17:55:25.489Z,6.60
2023-03-10T17:59:07.288Z,6.60
2023-03-10T18:02:49.140Z,6.50
2023-03-10T18:06:33.882Z,6.40
2023-03-10T18:10:16.456Z,6.30
2023-03-10T18:13:58.633Z,6.30
2023-03-10T18:17:40.485Z,6.20
2023-03-10T18:21:23.186Z,6.10
2023-03-10T18:25:05.330Z,6.00
2023-03-10T18:28:47.383Z,6.00
2023-03-10T18:32:34.158Z,6.00
2023-03-10T18:36:17.555Z,6.00
2023-03-10T18:40:04.363Z,6.00
2023-03-10T18:43:46.401Z,5.90
2023-03-10T18:47:28.414Z,5.90
2023-03-10T18:51:11.141Z,5.90
2023-03-10T18:54:53.242Z,5.80
2023-03-10T18:58:37.590Z,5.80
2023-03-10T19:02:19.356Z,5.70
2023-03-10T19:06:01.533Z,5.70
2023-03-10T19:09:43.727Z,5.60
2023-03-10T19:13:27.976Z,5.50
2023-03-10T19:17:09.700Z,5.50
2023-03-10T19:20:57.810Z,5.40
2023-03-10T19:24:39.760Z,5.40
2023-03-10T19:28:21.597Z,5.30
2023-03-10T19:32:03.496Z,5.30
2023-03-10T19:35:45.725Z,5.20
2023-03-10T19:39:27.496Z,5.20
2023-03-10T19:43:09.165Z,5.10
2023-03-10T19:46:51.053Z,5.10
2023-03-10T19:50:32.795Z,5.10
2023-03-10T19:54:14.762Z,5.00
2023-03-10T19:57:56.556Z,5.00
2023-03-10T20:01:40.344Z,4.90
2023-03-10T20:05:25.540Z,4.80
2023-03-10T20:09:10.677Z,4.80
2023-03-10T20:12:52.505Z,4.80
2023-03-10T20:16:34.762Z,4.80
2023-03-10T20:20:19.948Z,4.80
2023-03-10T20:24:02.006Z,4.80
2023-03-10T20:27:45.543Z,4.80
2023-03-10T20:31:33.721Z,4.70
2023-03-10T20:35:16.542Z,4.70
2023-03-10T20:38:59.457Z,4.60
2023-03-10T20:42:41.945Z,4.60
2023-03-10T20:46:24.851Z,4.60
2023-03-10T20:50:08.925Z,4.50
2023-03-10T20:53:51.970Z,4.60
2023-03-10T20:57:34.889Z,4.60
2023-03-10T21:01:20.157Z,4.60
2023-03-10T21:05:04.999Z,4.60
2023-03-10T21:08:47.755Z,4.70
2023-03-10T21:12:29.617Z,4.70
2023-03-10T21:16:11.567Z,4.60
2023-03-10T21:19:54.239Z,4.60
2023-03-10T21:23:39.434Z,4.50
2023-03-10T21:27:21.319Z,4.40
2023-03-10T21:31:03.320Z,4.30
2023-03-10T21:34:45.524Z,4.30
2023-03-10T21:38:27.397Z,4.40
2023-03-10T21:42:13.086Z,4.30
2023-03-10T21:45:54.956Z,4.30
2023-03-10T21:49:37.163Z,4.20
2023-03-10T21:53:19.102Z,4.20
2023-03-10T21:57:01.115Z,4.10
2023-03-10T22:00:42.864Z,4.00
2023-03-10T22:04:24.589Z,3.90
2023-03-10T22:08:07.196Z,3.90
2023-03-10T22:11:48.939Z,3.90
2023-03-10T22:15:30.860Z,3.80
2023-03-10T22:19:12.580Z,3.90
2023-03-10T22:22:54.888Z,3.90
2023-03-10T22:26:37.010Z,3.80
2023-03-10T22:30:20.233Z,3.80
2023-03-10T22:34:01.967Z,3.80
2023-03-10T22:37:44.178Z,3.80
2023-03-10T22:41:27.835Z,3.80
2023-03-10T22:45:24.152Z,3.90
2023-03-10T22:49:05.924Z,3.90
2023-03-10T22:52:47.901Z,3.90
2023-03-10T22:56:29.612Z,3.90
2023-03-10T23:00:21.299Z,4.00
2023-03-10T23:04:03.334Z,3.90
2023-03-10T23:07:45.645Z,3.90
2023-03-10T23:11:27.458Z,3.90
2023-03-10T23:15:18.898Z,3.80
2023-03-10T23:19:08.653Z,3.80
2023-03-10T23:22:50.458Z,3.80
2023-03-10T23:26:35.011Z,3.80
2023-03-10T23:30:17.342Z,3.80
2023-03-10T23:33:59.388Z,3.90
2023-03-10T23:37:41.407Z,3.90
2023-03-10T23:41:23.327Z,3.90
2023-03-10T23:45:07.490Z,3.90
2023-03-10T23:48:49.467Z,3.90
2023-03-10T23:52:31.391Z,3.90
2023-03-10T23:56:13.382Z,3.90
2023-03-10T23:59:55.170Z,3.90
